Rockland, Massachusetts
Current Conditions -  °F | °C
As of 7:35 PM on Thursday 18 Dec 2014 (Local Time) from KGHG Reporting Station
Overcast Overcast  
Wind Chill: 36°   Ceiling: 3800
Heat Index: 39°   Visibility: 10mi
Dew Point: 30°   Wind: 5mph
Humidity: 70%   Direction: 260°W
Pressure: 29.87"   Gusts: NA
Location:  42.13°N, 70.92°W
Report Text: KGHG 190035Z AUTO 26004KT 10SM OVC038 04/M01 A2987 RMK AO2
Loading
Personal Weather Stations






























Interactive Weather Map New forecast layout! Learn more

10-Day Weather Forecast

Advertisements
Track Severe Weather on mobile